Ивня

Карта отелей и гостиниц, располагающихся рядом с аэропортом Ивня :



Ивня Белгородская область 51° 3' 28.4688" N, 36° 10' 37.3296" E

Ивня Белгородская область 51° 3' 28.4688" N, 36° 10' 37.3296" E
Код аэродрома ИКАО: 
HA9Y
Код аэродрома RU: 
ХА9Ы
Координаты: 
N51.05791° E036.17704°
Превышение над уровнем моря : 
230
Основная полоса: 
35/17
Курс магнитный: 
352,2/172,2
Длина основной ВПП: 
395
Ширина основной ВПП: 
18
Покрытие основной ВПП: 
Твёрдое
Тип: 
Аэродром
Освещение ВПП: 
Нет
Класс аэродрома: 
Статус: 
Недействующий
Принадлежность: 
ГА
Сайт: 
E-mail аэродрома: 
Страна: 
Россия
Регион: 
Белгородская область
Город: 
Дополнительная информация: 
Площадка АХР. ИВПП практически не существует.

Найти трансфер

С помощью этой формы Вы можете найти трансфер из аэропорта Ивня в город, аэропорт или вокзал:

Карта места

Javascript is required to view this map.

Погода в аэропортах:

Авиационная погода в Трабзоне

Регион: 
Погода METAR: 
LTCG 042250Z 16006KT 100V240 9999 -SHRA SCT035 BKN090 18/16 Q1018 NOSIG RMK RWY29 15005KT 110V180
Время наблюдения: 
2020-06-04T22:50:00Z
Температура C: 
18.0
Точка росы: 
16.0
Направление ветра: 
160
Скорость ветра: 
6
Метеорологическая видимость: 
6.21
Явления погоды: 
-SHRA
Условия полета: 
VFR

Авиационная погода в Куопио

Регион: 
Погода METAR: 
EFKU 042250Z AUTO 05009KT 010V080 9999 -SHRA OVC012 12/11 Q1001
Время наблюдения: 
2020-06-04T22:50:00Z
Температура C: 
12.0
Точка росы: 
11.0
Направление ветра: 
50
Скорость ветра: 
9
Метеорологическая видимость: 
6.21
Явления погоды: 
-SHRA
Условия полета: 
MVFR

Авиационная погода в Грозном

Регион: 
Погода METAR: 
URMG 042300Z 31004MPS 9999 -SHRA SCT///CB BKN/// 17/14 Q1014 R08/090070 NOSIG RMK QFE746/0995
Время наблюдения: 
2020-06-04T23:00:00Z
Температура C: 
17.0
Точка росы: 
14.0
Направление ветра: 
310
Скорость ветра: 
8
Метеорологическая видимость: 
6.21
Явления погоды: 
-SHRA
Аэропорт подробнее: 

Авиационная погода в Миккели

Регион: 
Погода METAR: 
EFMI 042250Z AUTO 02004KT 280V090 6000 -SHRA OVC005 ///// Q////
Время наблюдения: 
2020-06-04T22:50:00Z
Направление ветра: 
20
Скорость ветра: 
4
Метеорологическая видимость: 
3.73
Явления погоды: 
-SHRA
Условия полета: 
IFR